createdAt,value
2019-03-13T00:00:09.242Z,996.85
2019-03-13T00:01:09.222Z,996.80
2019-03-13T00:02:09.213Z,996.76
2019-03-13T00:03:09.291Z,996.86
2019-03-13T00:04:09.199Z,996.96
2019-03-13T00:05:09.192Z,996.90
2019-03-13T00:06:09.203Z,996.99
2019-03-13T00:07:09.177Z,997.07
2019-03-13T00:08:09.173Z,996.99
2019-03-13T00:09:09.157Z,997.02
2019-03-13T00:10:09.170Z,997.06
2019-03-13T00:11:09.140Z,997.06
2019-03-13T00:12:09.139Z,997.09
2019-03-13T00:13:09.147Z,997.16
2019-03-13T00:14:09.108Z,997.14
2019-03-13T00:15:09.102Z,997.18
2019-03-13T00:16:09.095Z,997.23
2019-03-13T00:17:09.099Z,997.22
2019-03-13T00:18:09.081Z,997.22
2019-03-13T00:19:09.060Z,997.22
2019-03-13T00:20:09.048Z,997.37
2019-03-13T00:21:09.063Z,997.29
2019-03-13T00:22:09.028Z,997.38
2019-03-13T00:23:09.015Z,997.46
2019-03-13T00:24:09.001Z,997.54
2019-03-13T00:25:08.985Z,997.57
2019-03-13T00:26:08.971Z,997.61
2019-03-13T00:27:08.971Z,997.61
2019-03-13T00:28:08.937Z,997.59
2019-03-13T00:29:08.919Z,997.58
2019-03-13T00:30:08.909Z,997.65
2019-03-13T00:31:08.902Z,997.63
2019-03-13T00:32:08.923Z,997.64
2019-03-13T00:33:08.886Z,997.61
2019-03-13T00:34:08.925Z,997.62
2019-03-13T00:35:08.867Z,997.68
2019-03-13T00:36:08.874Z,997.69
2019-03-13T00:37:08.862Z,997.81
2019-03-13T00:38:08.867Z,997.89
2019-03-13T00:39:08.841Z,997.97
2019-03-13T00:40:08.847Z,997.97
2019-03-13T00:41:08.830Z,998.05
2019-03-13T00:42:08.822Z,998.16
2019-03-13T00:43:08.823Z,998.25
2019-03-13T00:44:08.818Z,998.28
2019-03-13T00:45:08.808Z,998.18
2019-03-13T00:46:08.801Z,998.28
2019-03-13T00:47:08.790Z,998.28
2019-03-13T00:48:09.080Z,998.42
2019-03-13T00:49:08.774Z,998.35
2019-03-13T00:50:08.765Z,998.40
2019-03-13T00:51:08.756Z,998.51
2019-03-13T00:52:08.761Z,998.53
2019-03-13T00:53:08.743Z,998.45
2019-03-13T00:54:08.737Z,998.59
2019-03-13T00:55:08.726Z,998.57
2019-03-13T00:56:08.722Z,998.62
2019-03-13T00:57:08.718Z,998.65
2019-03-13T00:58:08.711Z,998.70
2019-03-13T00:59:08.714Z,998.73
2019-03-13T01:00:08.707Z,998.75
2019-03-13T01:01:08.705Z,998.83
2019-03-13T01:02:08.706Z,998.89
2019-03-13T01:03:08.698Z,998.93
2019-03-13T01:04:08.693Z,998.93
2019-03-13T01:05:08.689Z,999.00
2019-03-13T01:06:08.675Z,999.16
2019-03-13T01:07:08.672Z,999.11
2019-03-13T01:08:08.665Z,999.10
2019-03-13T01:09:08.667Z,999.17
2019-03-13T01:10:08.652Z,999.17
2019-03-13T01:11:08.664Z,999.14
2019-03-13T01:12:08.645Z,999.21
2019-03-13T01:13:08.648Z,999.18
2019-03-13T01:14:08.630Z,999.23
2019-03-13T01:15:08.618Z,999.22
2019-03-13T01:16:08.605Z,999.20
2019-03-13T01:17:08.595Z,999.23
2019-03-13T01:18:08.587Z,999.27
2019-03-13T01:19:08.593Z,999.37
2019-03-13T01:20:08.573Z,999.34
2019-03-13T01:21:08.571Z,999.34
2019-03-13T01:22:08.563Z,999.46
2019-03-13T01:23:08.571Z,999.54
2019-03-13T01:24:08.817Z,999.53
2019-03-13T01:25:08.564Z,999.52
2019-03-13T01:26:08.551Z,999.51
2019-03-13T01:27:08.566Z,999.58
2019-03-13T01:28:08.554Z,999.58
2019-03-13T01:29:08.557Z,999.61
2019-03-13T01:30:08.556Z,999.54
2019-03-13T01:31:08.542Z,999.62
2019-03-13T01:32:08.540Z,999.64
2019-03-13T01:33:08.539Z,999.63
2019-03-13T01:34:08.529Z,999.67
2019-03-13T01:35:08.535Z,999.76
2019-03-13T01:36:08.520Z,999.79
2019-03-13T01:37:08.504Z,999.77
2019-03-13T01:38:08.493Z,999.82
2019-03-13T01:39:08.480Z,999.81
2019-03-13T01:40:08.474Z,999.90
2019-03-13T01:41:08.459Z,999.89
2019-03-13T01:42:08.445Z,999.90
2019-03-13T01:43:08.432Z,999.83
2019-03-13T01:44:08.412Z,999.85
2019-03-13T01:45:08.408Z,999.82
2019-03-13T01:46:08.389Z,999.90
2019-03-13T01:47:08.383Z,999.86
2019-03-13T01:48:08.370Z,999.90
2019-03-13T01:49:08.367Z,999.94
2019-03-13T01:50:08.359Z,999.89
2019-03-13T01:51:08.350Z,999.91
2019-03-13T01:52:08.342Z,999.92
2019-03-13T01:53:08.340Z,999.94
2019-03-13T01:54:08.339Z,999.94
2019-03-13T01:55:08.333Z,1000.00
2019-03-13T01:56:08.314Z,1000.03
2019-03-13T01:57:08.296Z,1000.01
2019-03-13T01:58:08.288Z,1000.06
2019-03-13T01:59:08.281Z,1000.02
2019-03-13T02:00:08.560Z,999.98
2019-03-13T02:01:08.285Z,1000.03
2019-03-13T02:02:08.268Z,999.97
2019-03-13T02:03:08.250Z,999.95
2019-03-13T02:04:08.240Z,1000.03
2019-03-13T02:05:08.233Z,1000.05
2019-03-13T02:06:08.231Z,1000.05
2019-03-13T02:07:08.227Z,1000.06
2019-03-13T02:08:08.221Z,1000.12
2019-03-13T02:09:08.223Z,1000.13
2019-03-13T02:10:08.220Z,1000.13
2019-03-13T02:11:08.214Z,1000.18
2019-03-13T02:12:08.210Z,1000.22
2019-03-13T02:13:08.208Z,1000.23
2019-03-13T02:14:08.205Z,1000.27
2019-03-13T02:15:08.206Z,1000.28
2019-03-13T02:16:08.204Z,1000.33
2019-03-13T02:17:08.199Z,1000.38
2019-03-13T02:18:08.196Z,1000.26
2019-03-13T02:19:08.193Z,1000.27
2019-03-13T02:20:08.189Z,1000.37
2019-03-13T02:21:08.187Z,1000.41
2019-03-13T02:22:08.187Z,1000.50
2019-03-13T02:23:08.194Z,1000.51
2019-03-13T02:24:08.186Z,1000.45
2019-03-13T02:25:08.181Z,1000.39
2019-03-13T02:26:08.182Z,1000.47
2019-03-13T02:27:08.179Z,1000.56
2019-03-13T02:28:08.173Z,1000.55
2019-03-13T02:29:08.171Z,1000.58
2019-03-13T02:30:08.174Z,1000.58
2019-03-13T02:31:08.176Z,1000.60
2019-03-13T02:32:08.163Z,1000.59
2019-03-13T02:33:08.159Z,1000.66
2019-03-13T02:34:08.161Z,1000.70
2019-03-13T02:35:08.154Z,1000.72
2019-03-13T02:36:08.151Z,1000.81
2019-03-13T02:37:08.142Z,1000.76
2019-03-13T02:38:08.140Z,1000.74
2019-03-13T02:39:08.140Z,1000.77
2019-03-13T02:40:08.144Z,1000.80
2019-03-13T02:41:08.145Z,1000.84
2019-03-13T02:42:08.130Z,1000.83
2019-03-13T02:43:08.124Z,1000.82
2019-03-13T02:44:08.122Z,1000.84
2019-03-13T02:45:08.126Z,1000.81
2019-03-13T02:46:08.130Z,1000.82
2019-03-13T02:47:08.107Z,1000.89
2019-03-13T02:48:08.110Z,1000.80
2019-03-13T02:49:08.106Z,1000.78
2019-03-13T02:50:08.103Z,1000.78
2019-03-13T02:51:08.112Z,1000.78
2019-03-13T02:52:08.088Z,1000.80
2019-03-13T02:53:08.095Z,1000.77
2019-03-13T02:54:08.092Z,1000.79
2019-03-13T02:55:08.083Z,1000.80
2019-03-13T02:56:08.097Z,1000.81
2019-03-13T02:57:08.076Z,1000.73
2019-03-13T02:58:08.081Z,1000.76
2019-03-13T02:59:08.083Z,1000.71
2019-03-13T03:00:08.073Z,1000.73
2019-03-13T03:01:08.077Z,1000.73
2019-03-13T03:02:08.252Z,1000.72
2019-03-13T03:03:08.079Z,1000.71
2019-03-13T03:04:08.075Z,1000.79
2019-03-13T03:05:08.086Z,1000.78
2019-03-13T03:06:08.076Z,1000.76
2019-03-13T03:07:08.081Z,1000.82
2019-03-13T03:08:08.080Z,1000.87
2019-03-13T03:09:08.077Z,1000.81
2019-03-13T03:10:08.086Z,1000.81
2019-03-13T03:11:08.073Z,1000.79
2019-03-13T03:12:08.093Z,1000.80
2019-03-13T03:13:08.091Z,1000.70
2019-03-13T03:14:08.086Z,1000.72
2019-03-13T03:15:08.085Z,1000.71
2019-03-13T03:16:08.082Z,1000.72
2019-03-13T03:17:08.097Z,1000.71
2019-03-13T03:18:08.087Z,1000.73
2019-03-13T03:19:08.084Z,1000.75
2019-03-13T03:20:08.094Z,1000.76
2019-03-13T03:21:08.092Z,1000.72
2019-03-13T03:22:08.086Z,1000.71
2019-03-13T03:23:08.098Z,1000.70
2019-03-13T03:24:08.121Z,1000.66
2019-03-13T03:25:08.109Z,1000.71
2019-03-13T03:26:08.098Z,1000.75
2019-03-13T03:27:08.100Z,1000.64
2019-03-13T03:28:08.107Z,1000.67
2019-03-13T03:29:08.129Z,1000.67
2019-03-13T03:30:08.118Z,1000.69
2019-03-13T03:31:08.117Z,1000.67
2019-03-13T03:32:08.124Z,1000.68
2019-03-13T03:33:08.107Z,1000.71
2019-03-13T03:34:08.107Z,1000.59
2019-03-13T03:35:08.125Z,1000.68
2019-03-13T03:36:08.108Z,1000.74
2019-03-13T03:37:08.137Z,1000.78
2019-03-13T03:38:08.103Z,1000.76
2019-03-13T03:39:08.130Z,1000.77
2019-03-13T03:40:08.108Z,1000.71
2019-03-13T03:41:08.092Z,1000.75
2019-03-13T03:42:08.127Z,1000.77
2019-03-13T03:43:08.090Z,1000.84
2019-03-13T03:44:08.103Z,1000.82
2019-03-13T03:45:08.127Z,1000.88
2019-03-13T03:46:08.100Z,1000.84
2019-03-13T03:47:08.123Z,1000.85
2019-03-13T03:48:08.132Z,1000.90
2019-03-13T03:49:08.115Z,1000.91
2019-03-13T03:50:08.126Z,1000.91
2019-03-13T03:51:08.125Z,1001.00
2019-03-13T03:52:08.122Z,1000.97
2019-03-13T03:53:08.138Z,1000.98
2019-03-13T03:54:08.134Z,1000.94
2019-03-13T03:55:08.130Z,1000.89
2019-03-13T03:56:08.147Z,1000.94
2019-03-13T03:57:08.138Z,1000.95
2019-03-13T03:58:08.141Z,1000.88
2019-03-13T03:59:08.146Z,1000.89
2019-03-13T04:00:08.150Z,1000.93
2019-03-13T04:01:08.153Z,1000.89
2019-03-13T04:02:08.158Z,1000.80
2019-03-13T04:03:08.163Z,1000.86
2019-03-13T04:04:08.161Z,1000.82
2019-03-13T04:05:08.155Z,1000.85
2019-03-13T04:06:08.165Z,1000.90
2019-03-13T04:07:08.165Z,1000.81
2019-03-13T04:08:08.169Z,1000.81
2019-03-13T04:09:08.167Z,1000.82
2019-03-13T04:10:08.169Z,1000.76
2019-03-13T04:11:08.180Z,1000.77
2019-03-13T04:12:08.194Z,1000.82
2019-03-13T04:13:08.199Z,1000.83
2019-03-13T04:14:08.199Z,1000.86
2019-03-13T04:15:08.187Z,1000.89
2019-03-13T04:16:08.195Z,1000.87
2019-03-13T04:17:08.200Z,1000.86
2019-03-13T04:18:08.212Z,1000.78
2019-03-13T04:19:08.210Z,1000.72
2019-03-13T04:20:08.209Z,1000.67
2019-03-13T04:21:08.208Z,1000.63
2019-03-13T04:22:08.208Z,1000.66
2019-03-13T04:23:08.215Z,1000.61
2019-03-13T04:24:08.206Z,1000.60
2019-03-13T04:25:08.209Z,1000.51
2019-03-13T04:26:08.206Z,1000.47
2019-03-13T04:27:08.203Z,1000.49
2019-03-13T04:28:08.216Z,1000.52
2019-03-13T04:29:08.216Z,1000.54
2019-03-13T04:30:08.221Z,1000.56
2019-03-13T04:31:08.200Z,1000.61
2019-03-13T04:32:08.204Z,1000.66
2019-03-13T04:33:08.233Z,1000.61
2019-03-13T04:34:08.195Z,1000.65
2019-03-13T04:35:08.192Z,1000.64
2019-03-13T04:36:08.194Z,1000.66
2019-03-13T04:37:08.192Z,1000.72
2019-03-13T04:38:08.207Z,1000.71
2019-03-13T04:39:08.200Z,1000.75
2019-03-13T04:40:08.203Z,1000.73
2019-03-13T04:41:08.189Z,1000.68
2019-03-13T04:42:08.183Z,1000.71
2019-03-13T04:43:08.182Z,1000.75
2019-03-13T04:44:08.186Z,1000.73
2019-03-13T04:45:08.180Z,1000.75
2019-03-13T04:46:08.186Z,1000.83
2019-03-13T04:47:08.178Z,1000.80
2019-03-13T04:48:08.173Z,1000.78
2019-03-13T04:49:08.175Z,1000.89
2019-03-13T04:50:08.173Z,1000.84
2019-03-13T04:51:08.171Z,1000.83
2019-03-13T04:52:08.179Z,1000.87
2019-03-13T04:53:08.175Z,1000.88
2019-03-13T04:54:08.177Z,1000.81
2019-03-13T04:55:08.166Z,1000.86
2019-03-13T04:56:08.191Z,1000.84
2019-03-13T04:57:08.153Z,1000.90
2019-03-13T04:58:08.145Z,1000.92
2019-03-13T04:59:08.140Z,1000.89
2019-03-13T05:00:08.131Z,1001.00
2019-03-13T05:01:08.145Z,1001.01
2019-03-13T05:02:08.134Z,1001.03
2019-03-13T05:03:08.129Z,1001.01
2019-03-13T05:04:08.134Z,1001.01
2019-03-13T05:05:08.132Z,1001.05
2019-03-13T05:06:08.133Z,1001.06
2019-03-13T05:07:08.135Z,1001.09
2019-03-13T05:08:08.137Z,1001.09
2019-03-13T05:09:08.158Z,1001.08
2019-03-13T05:10:08.139Z,1001.10
2019-03-13T05:11:08.144Z,1001.11
2019-03-13T05:12:08.148Z,1001.13
2019-03-13T05:13:08.318Z,1001.18
2019-03-13T05:14:08.158Z,1001.21
2019-03-13T05:15:08.153Z,1001.19
2019-03-13T05:16:08.152Z,1001.13
2019-03-13T05:17:08.156Z,1001.25
2019-03-13T05:18:08.153Z,1001.17
2019-03-13T05:19:08.156Z,1001.18
2019-03-13T05:20:08.160Z,1001.24
2019-03-13T05:21:08.163Z,1001.18
2019-03-13T05:22:08.164Z,1001.19
2019-03-13T05:23:08.164Z,1001.16
2019-03-13T05:24:08.168Z,1001.11
2019-03-13T05:25:08.192Z,1001.10
2019-03-13T05:26:08.174Z,1001.09
2019-03-13T05:27:08.213Z,1001.17
2019-03-13T05:28:08.191Z,1001.14
2019-03-13T05:29:08.247Z,1001.17
2019-03-13T05:30:08.238Z,1001.19
2019-03-13T05:31:08.308Z,1001.15
2019-03-13T05:32:08.202Z,1001.20
2019-03-13T05:33:08.206Z,1001.23
2019-03-13T05:34:08.211Z,1001.07
2019-03-13T05:35:08.226Z,1001.15
2019-03-13T05:36:08.219Z,1001.18
2019-03-13T05:37:08.216Z,1001.18
2019-03-13T05:38:08.228Z,1001.15
2019-03-13T05:39:08.228Z,1001.13
2019-03-13T05:40:08.235Z,1001.13
2019-03-13T05:41:08.239Z,1001.18
2019-03-13T05:42:08.244Z,1001.18
2019-03-13T05:43:08.255Z,1001.15
2019-03-13T05:44:08.259Z,1001.18
2019-03-13T05:45:08.598Z,1001.05
2019-03-13T05:46:08.265Z,1001.13
2019-03-13T05:47:08.263Z,1001.08
2019-03-13T05:48:08.270Z,1001.12
2019-03-13T05:49:08.270Z,1001.20
2019-03-13T05:50:08.277Z,1001.24
2019-03-13T05:51:08.283Z,1001.32
2019-03-13T05:52:08.285Z,1001.32
2019-03-13T05:53:08.289Z,1001.37
2019-03-13T05:54:08.292Z,1001.30
2019-03-13T05:55:08.303Z,1001.35
2019-03-13T05:56:08.302Z,1001.38
2019-03-13T05:57:08.286Z,1001.33
2019-03-13T05:58:08.290Z,1001.22
2019-03-13T05:59:08.288Z,1001.35
2019-03-13T06:00:08.300Z,1001.32
2019-03-13T06:01:08.297Z,1001.22
2019-03-13T06:02:08.288Z,1001.22
2019-03-13T06:03:08.316Z,1001.21
2019-03-13T06:04:08.296Z,1001.21
2019-03-13T06:05:08.302Z,1001.32
2019-03-13T06:06:08.309Z,1001.30
2019-03-13T06:07:08.311Z,1001.23
2019-03-13T06:08:08.310Z,1001.20
2019-03-13T06:09:08.309Z,1001.32
2019-03-13T06:10:08.306Z,1001.32
2019-03-13T06:11:08.308Z,1001.34
2019-03-13T06:12:08.303Z,1001.37
2019-03-13T06:13:08.361Z,1001.37
2019-03-13T06:14:08.307Z,1001.33
2019-03-13T06:15:08.307Z,1001.32
2019-03-13T06:16:08.311Z,1001.34
2019-03-13T06:17:08.309Z,1001.37
2019-03-13T06:18:09.773Z,1001.42
2019-03-13T06:19:08.321Z,1001.44
2019-03-13T06:20:10.567Z,1001.42
2019-03-13T06:21:08.347Z,1001.46
2019-03-13T06:22:08.354Z,1001.50
2019-03-13T06:23:08.341Z,1001.41
2019-03-13T06:24:08.343Z,1001.42
2019-03-13T06:25:08.345Z,1001.45
2019-03-13T06:26:08.364Z,1001.46
2019-03-13T06:27:08.348Z,1001.49
2019-03-13T06:28:08.353Z,1001.48
2019-03-13T06:29:08.353Z,1001.51
2019-03-13T06:30:08.356Z,1001.41
2019-03-13T06:31:08.401Z,1001.40
2019-03-13T06:32:08.367Z,1001.46
2019-03-13T06:33:08.378Z,1001.47
2019-03-13T06:34:11.358Z,1001.45
2019-03-13T06:35:08.366Z,1001.52
2019-03-13T06:36:08.362Z,1001.53
2019-03-13T06:37:08.372Z,1001.43
2019-03-13T06:38:08.388Z,1001.37
2019-03-13T06:39:08.369Z,1001.49
2019-03-13T06:40:08.371Z,1001.44
2019-03-13T06:41:08.381Z,1001.52
2019-03-13T06:42:08.385Z,1001.50
2019-03-13T06:43:08.377Z,1001.46
2019-03-13T06:44:08.385Z,1001.37
2019-03-13T06:45:08.382Z,1001.44
2019-03-13T06:46:08.379Z,1001.44
2019-03-13T06:47:08.382Z,1001.51
2019-03-13T06:48:08.383Z,1001.44
2019-03-13T06:49:08.398Z,1001.44
2019-03-13T06:50:08.387Z,1001.41
2019-03-13T06:51:08.383Z,1001.43
2019-03-13T06:52:08.389Z,1001.52
2019-03-13T06:53:08.386Z,1001.48
2019-03-13T06:54:08.384Z,1001.45
2019-03-13T06:55:08.389Z,1001.45
2019-03-13T06:56:08.391Z,1001.46
2019-03-13T06:57:08.391Z,1001.43
2019-03-13T06:58:08.395Z,1001.36
2019-03-13T06:59:08.395Z,1001.49
2019-03-13T07:00:08.392Z,1001.45
2019-03-13T07:01:08.403Z,1001.52
2019-03-13T07:02:08.408Z,1001.49
2019-03-13T07:03:08.411Z,1001.48
2019-03-13T07:04:08.418Z,1001.50
2019-03-13T07:05:08.413Z,1001.59
2019-03-13T07:06:08.418Z,1001.56
2019-03-13T07:07:08.471Z,1001.55
2019-03-13T07:08:08.426Z,1001.59
2019-03-13T07:09:08.428Z,1001.62
2019-03-13T07:10:08.444Z,1001.56
2019-03-13T07:11:08.440Z,1001.56
2019-03-13T07:12:08.445Z,1001.48
2019-03-13T07:13:08.436Z,1001.42
2019-03-13T07:14:08.422Z,1001.50
2019-03-13T07:15:08.429Z,1001.37
2019-03-13T07:16:08.425Z,1001.43
2019-03-13T07:17:08.438Z,1001.37
2019-03-13T07:18:08.462Z,1001.52
2019-03-13T07:19:08.430Z,1001.49
2019-03-13T07:20:08.436Z,1001.46
2019-03-13T07:21:08.455Z,1001.50
2019-03-13T07:22:08.456Z,1001.49
2019-03-13T07:23:08.444Z,1001.43
2019-03-13T07:24:08.442Z,1001.56
2019-03-13T07:25:08.454Z,1001.44
2019-03-13T07:26:08.445Z,1001.50
2019-03-13T07:27:08.460Z,1001.52
2019-03-13T07:28:08.459Z,1001.47
2019-03-13T07:29:12.460Z,1001.49
2019-03-13T07:30:08.460Z,1001.35
2019-03-13T07:31:08.454Z,1001.39
2019-03-13T07:32:08.463Z,1001.42
2019-03-13T07:33:08.448Z,1001.43
2019-03-13T07:34:08.449Z,1001.50
2019-03-13T07:35:08.451Z,1001.43
2019-03-13T07:36:08.446Z,1001.46
2019-03-13T07:37:08.458Z,1001.52
2019-03-13T07:38:08.454Z,1001.40
2019-03-13T07:39:08.444Z,1001.37
2019-03-13T07:40:08.461Z,1001.42
2019-03-13T07:41:08.446Z,1001.46
2019-03-13T07:42:08.447Z,1001.46
2019-03-13T07:43:08.465Z,1001.50
2019-03-13T07:44:08.436Z,1001.44
2019-03-13T07:45:08.436Z,1001.52
2019-03-13T07:46:08.431Z,1001.60
2019-03-13T07:47:08.462Z,1001.60
2019-03-13T07:48:08.431Z,1001.55
2019-03-13T07:49:08.434Z,1001.76
2019-03-13T07:50:08.439Z,1001.79
2019-03-13T07:51:08.457Z,1001.70
2019-03-13T07:52:08.433Z,1001.74
2019-03-13T07:53:08.452Z,1001.73
2019-03-13T07:54:08.422Z,1001.80
2019-03-13T07:55:08.414Z,1001.70
2019-03-13T07:56:08.403Z,1001.66
2019-03-13T07:57:08.419Z,1001.76
2019-03-13T07:58:08.404Z,1001.67
2019-03-13T07:59:08.385Z,1001.72
2019-03-13T08:00:08.379Z,1001.67
2019-03-13T08:01:08.389Z,1001.71
2019-03-13T08:02:08.465Z,1001.75
2019-03-13T08:03:08.365Z,1001.81
2019-03-13T08:04:08.359Z,1001.81
2019-03-13T08:05:08.350Z,1001.88
2019-03-13T08:06:08.355Z,1001.78
2019-03-13T08:07:08.346Z,1001.84
2019-03-13T08:08:08.339Z,1001.84
2019-03-13T08:09:08.329Z,1001.84
2019-03-13T08:10:08.312Z,1001.84
2019-03-13T08:11:08.307Z,1001.78
2019-03-13T08:12:08.299Z,1001.86
2019-03-13T08:13:08.297Z,1001.89
2019-03-13T08:14:08.284Z,1001.82
2019-03-13T08:15:08.286Z,1001.75
2019-03-13T08:16:08.265Z,1001.81
2019-03-13T08:17:08.243Z,1001.77
2019-03-13T08:18:08.236Z,1001.66
2019-03-13T08:19:08.222Z,1001.74
2019-03-13T08:20:08.208Z,1001.70
2019-03-13T08:21:08.193Z,1001.63
2019-03-13T08:22:08.178Z,1001.65
2019-03-13T08:23:08.170Z,1001.63
2019-03-13T08:24:08.142Z,1001.51
2019-03-13T08:25:08.394Z,1001.55
2019-03-13T08:26:08.105Z,1001.63
2019-03-13T08:27:08.083Z,1001.57
2019-03-13T08:28:08.078Z,1001.57
2019-03-13T08:29:08.049Z,1001.53
2019-03-13T08:30:08.025Z,1001.55
2019-03-13T08:31:08.007Z,1001.54
2019-03-13T08:32:07.984Z,1001.58
2019-03-13T08:33:07.978Z,1001.49
2019-03-13T08:34:07.958Z,1001.53
2019-03-13T08:35:07.949Z,1001.49
2019-03-13T08:36:07.922Z,1001.56
2019-03-13T08:37:07.890Z,1001.57
2019-03-13T08:38:07.867Z,1001.56
2019-03-13T08:39:07.863Z,1001.58
2019-03-13T08:40:07.835Z,1001.55
2019-03-13T08:41:07.814Z,1001.46
2019-03-13T08:42:07.791Z,1001.52
2019-03-13T08:43:07.765Z,1001.39
2019-03-13T08:44:07.747Z,1001.47
2019-03-13T08:45:07.727Z,1001.39
2019-03-13T08:46:07.711Z,1001.48
2019-03-13T08:47:07.687Z,1001.49
2019-03-13T08:48:07.673Z,1001.44
2019-03-13T08:49:07.686Z,1001.30
2019-03-13T08:50:07.625Z,1001.40
2019-03-13T08:51:07.610Z,1001.32
2019-03-13T08:52:07.585Z,1001.43
2019-03-13T08:53:07.591Z,1001.44
2019-03-13T08:54:07.578Z,1001.44
2019-03-13T08:55:07.537Z,1001.45
2019-03-13T08:56:07.523Z,1001.41
2019-03-13T08:57:07.508Z,1001.34
2019-03-13T08:58:07.493Z,1001.32
2019-03-13T08:59:07.478Z,1001.29
2019-03-13T09:00:07.453Z,1001.27
2019-03-13T09:01:07.436Z,1001.36
2019-03-13T09:02:07.415Z,1001.30
2019-03-13T09:03:07.396Z,1001.25
2019-03-13T09:04:07.371Z,1001.23
2019-03-13T09:05:07.351Z,1001.29
2019-03-13T09:06:07.359Z,1001.16
2019-03-13T09:07:07.319Z,1001.13
2019-03-13T09:08:07.304Z,1001.14
2019-03-13T09:09:07.287Z,1001.11
2019-03-13T09:10:07.255Z,1001.12
2019-03-13T09:11:07.222Z,1001.10
2019-03-13T09:12:07.200Z,1001.06
2019-03-13T09:13:07.195Z,1001.15
2019-03-13T09:14:07.172Z,1001.13
2019-03-13T09:15:07.131Z,1001.15
2019-03-13T09:16:07.132Z,1001.14
2019-03-13T09:17:07.084Z,1001.11
2019-03-13T09:18:07.052Z,1001.16
2019-03-13T09:19:07.035Z,1001.23
2019-03-13T09:20:06.994Z,1001.12
2019-03-13T09:21:06.965Z,1001.12
2019-03-13T09:22:06.957Z,1001.22
2019-03-13T09:23:06.915Z,1001.10
2019-03-13T09:24:06.891Z,1001.11
2019-03-13T09:25:12.276Z,1001.08
2019-03-13T09:26:07.847Z,1001.04
2019-03-13T09:27:06.807Z,1001.14
2019-03-13T09:28:06.783Z,1001.04
2019-03-13T09:29:06.765Z,1001.01
2019-03-13T09:30:06.732Z,1000.96
2019-03-13T09:31:06.711Z,1001.08
2019-03-13T09:32:06.705Z,1000.92
2019-03-13T09:33:06.651Z,1000.92
2019-03-13T09:34:06.630Z,1000.97
2019-03-13T09:35:06.604Z,1000.95
2019-03-13T09:36:06.597Z,1000.98
2019-03-13T09:37:06.568Z,1000.81
2019-03-13T09:38:06.551Z,1000.81
2019-03-13T09:39:06.522Z,1000.90
2019-03-13T09:40:06.532Z,1000.81
2019-03-13T09:41:06.474Z,1000.82
2019-03-13T09:42:06.465Z,1000.86
2019-03-13T09:43:06.446Z,1001.00
2019-03-13T09:44:06.457Z,1001.02
2019-03-13T09:45:06.395Z,1001.02
2019-03-13T09:46:06.378Z,1000.91
2019-03-13T09:47:06.343Z,1000.85
2019-03-13T09:48:06.332Z,1000.88
2019-03-13T09:49:06.318Z,1000.87
2019-03-13T09:50:06.311Z,1000.92
2019-03-13T09:51:06.275Z,1000.89
2019-03-13T09:52:06.254Z,1001.16
2019-03-13T09:53:06.248Z,1000.83
2019-03-13T09:54:06.281Z,1000.94
2019-03-13T09:55:06.218Z,1000.96
2019-03-13T09:56:06.184Z,1000.89
2019-03-13T09:57:06.165Z,1000.91
2019-03-13T09:58:06.149Z,1000.80
2019-03-13T09:59:06.134Z,1000.90
2019-03-13T10:00:06.142Z,1001.01
2019-03-13T10:01:06.096Z,1000.97
2019-03-13T10:02:06.092Z,1000.81
2019-03-13T10:03:06.070Z,1000.87
2019-03-13T10:04:06.069Z,1000.84
2019-03-13T10:05:06.052Z,1000.83
2019-03-13T10:06:06.019Z,1001.00
2019-03-13T10:07:06.001Z,1000.84
2019-03-13T10:08:05.978Z,1000.91
2019-03-13T10:09:05.956Z,1000.83
2019-03-13T10:10:05.997Z,1000.86
2019-03-13T10:11:05.930Z,1000.82
2019-03-13T10:12:05.904Z,1000.99
2019-03-13T10:13:05.886Z,1001.07
2019-03-13T10:14:05.869Z,1001.05
2019-03-13T10:15:05.876Z,1001.04
2019-03-13T10:16:05.833Z,1001.03
2019-03-13T10:17:10.937Z,1001.05
2019-03-13T10:18:06.818Z,1001.04
2019-03-13T10:19:05.786Z,1001.00
2019-03-13T10:20:05.777Z,1001.02
2019-03-13T10:21:05.764Z,1001.12
2019-03-13T10:22:05.749Z,1001.02
2019-03-13T10:23:05.737Z,1001.07
2019-03-13T10:24:05.715Z,1001.08
2019-03-13T10:25:05.692Z,1001.01
2019-03-13T10:26:05.679Z,1001.04
2019-03-13T10:27:05.655Z,1000.98
2019-03-13T10:28:05.637Z,1001.07
2019-03-13T10:29:05.617Z,1000.99
2019-03-13T10:30:05.595Z,1001.13
2019-03-13T10:31:05.599Z,1001.13
2019-03-13T10:32:05.596Z,1001.06
2019-03-13T10:33:05.571Z,1001.08
2019-03-13T10:34:05.539Z,1001.14
2019-03-13T10:35:05.518Z,1001.21
2019-03-13T10:36:05.507Z,1001.10
2019-03-13T10:37:05.509Z,1000.95
2019-03-13T10:38:13.839Z,1001.16
2019-03-13T10:39:06.447Z,1001.22
2019-03-13T10:40:05.429Z,1001.11
2019-03-13T10:41:05.421Z,1001.02
2019-03-13T10:42:05.400Z,1001.10
2019-03-13T10:43:05.379Z,1001.12
2019-03-13T10:44:05.370Z,1001.18
2019-03-13T10:45:05.348Z,1001.13
2019-03-13T10:46:05.341Z,1001.14
2019-03-13T10:47:05.321Z,1001.08
2019-03-13T10:48:05.301Z,1001.16
2019-03-13T10:49:05.311Z,1001.18
2019-03-13T10:50:05.271Z,1001.04
2019-03-13T10:51:05.264Z,1001.05
2019-03-13T10:52:05.309Z,1001.14
2019-03-13T10:53:05.228Z,1001.17
2019-03-13T10:54:05.224Z,1001.05
2019-03-13T10:55:05.215Z,1001.09
2019-03-13T10:56:05.217Z,1000.97
2019-03-13T10:57:05.172Z,1001.02
2019-03-13T10:58:05.151Z,1001.00
2019-03-13T10:59:05.137Z,1000.90
2019-03-13T11:00:05.133Z,1000.94
2019-03-13T11:01:05.112Z,1001.01
2019-03-13T11:02:05.079Z,1001.05
2019-03-13T11:03:05.067Z,1000.89
2019-03-13T11:04:05.071Z,1000.90
2019-03-13T11:05:05.052Z,1000.78
2019-03-13T11:06:05.072Z,1000.90
2019-03-13T11:07:05.023Z,1000.84
2019-03-13T11:08:05.006Z,1000.76
2019-03-13T11:09:04.997Z,1000.74
2019-03-13T11:10:04.967Z,1000.69
2019-03-13T11:11:04.961Z,1000.68
2019-03-13T11:12:04.961Z,1000.67
2019-03-13T11:13:04.945Z,1000.63
2019-03-13T11:14:14.815Z,1000.56
2019-03-13T11:15:05.921Z,1000.64
2019-03-13T11:16:04.913Z,1000.61
2019-03-13T11:17:04.900Z,1000.63
2019-03-13T11:18:04.894Z,1000.61
2019-03-13T11:19:04.929Z,1000.53
2019-03-13T11:20:04.881Z,1000.57
2019-03-13T11:21:04.860Z,1000.49
2019-03-13T11:22:04.847Z,1000.44
2019-03-13T11:23:04.824Z,1000.40
2019-03-13T11:24:04.817Z,1000.41
2019-03-13T11:25:04.841Z,1000.40
2019-03-13T11:26:04.790Z,1000.38
2019-03-13T11:27:04.773Z,1000.34
2019-03-13T11:28:04.745Z,1000.31
2019-03-13T11:29:04.728Z,1000.31
2019-03-13T11:30:04.737Z,1000.31
2019-03-13T11:31:04.718Z,1000.24
2019-03-13T11:32:04.672Z,1000.34
2019-03-13T11:33:04.649Z,1000.29
2019-03-13T11:34:04.635Z,1000.23
2019-03-13T11:35:04.616Z,1000.22
2019-03-13T11:36:04.595Z,1000.21
2019-03-13T11:37:04.593Z,1000.20
2019-03-13T11:38:04.564Z,1000.22
2019-03-13T11:39:04.562Z,1000.19
2019-03-13T11:40:04.551Z,1000.26
2019-03-13T11:41:04.529Z,1000.18
2019-03-13T11:42:04.547Z,1000.26
2019-03-13T11:43:04.484Z,1000.12
2019-03-13T11:44:04.467Z,1000.30
2019-03-13T11:45:04.537Z,1000.27
2019-03-13T11:46:04.452Z,1000.30
2019-03-13T11:47:04.434Z,1000.22
2019-03-13T11:48:04.409Z,1000.35
2019-03-13T11:49:04.387Z,1000.33
2019-03-13T11:50:04.385Z,1000.20
2019-03-13T11:51:04.345Z,1000.25
2019-03-13T11:52:04.336Z,1000.07
2019-03-13T11:53:04.318Z,1000.25
2019-03-13T11:54:04.306Z,1000.08
2019-03-13T11:55:04.275Z,1000.06
2019-03-13T11:56:04.266Z,1000.18
2019-03-13T11:57:04.271Z,1000.05
2019-03-13T11:58:04.239Z,1000.10
2019-03-13T11:59:04.220Z,1000.08
2019-03-13T12:00:04.198Z,1000.09
2019-03-13T12:01:04.189Z,1000.08
2019-03-13T12:02:04.165Z,1000.04
2019-03-13T12:03:04.150Z,999.98
2019-03-13T12:04:04.130Z,1000.20
2019-03-13T12:05:04.114Z,999.93
2019-03-13T12:06:04.103Z,999.96
2019-03-13T12:07:04.134Z,999.93
2019-03-13T12:08:04.062Z,999.90
2019-03-13T12:09:04.041Z,1000.03